Time;durP1;ratioP1;P1;durP2;ratioP2;P2;SDS_P1;SDS_P2;PMS_P1;PMS_P2;Temp;Humidity;BMP_temperature;BMP_pressure;BME280_temperature;BME280_humidity;BME280_pressure;Samples;Min_cycle;Max_cycle;Signal;HPM_P1;HPM_P2
2021/06/17 00:00:17;;;;;;;26.63;20.25;;;;;;;;;;4987918;28;20022;-70
2021/06/17 00:02:44;;;;;;;22.95;17.05;;;;;;;;;;4987723;28;20054;-70
2021/06/17 00:05:11;;;;;;;24.08;18.10;;;;;;;;;;4989834;28;20034;-70
2021/06/17 00:07:37;;;;;;;20.80;16.58;;;;;;;;;;4986723;28;20041;-70
2021/06/17 00:10:08;;;;;;;21.55;18.52;;;;;;;;;;4987930;28;20057;-70
2021/06/17 00:12:34;;;;;;;24.63;20.33;;;;;;;;;;4989657;28;20036;-70
2021/06/17 00:15:00;;;;;;;21.20;17.70;;;;;;;;;;4988305;28;20019;-70
2021/06/17 00:17:26;;;;;;;28.38;23.13;;;;;;;;;;4990211;28;20425;-70
2021/06/17 00:19:52;;;;;;;29.98;24.75;;;;;;;;;;4987177;28;20030;-70
2021/06/17 00:22:19;;;;;;;27.48;21.88;;;;;;;;;;4987953;28;20035;-69
2021/06/17 00:24:45;;;;;;;25.45;22.25;;;;;;;;;;4991847;28;20068;-70
2021/06/17 00:27:11;;;;;;;25.48;22.65;;;;;;;;;;4987578;28;20656;-70
2021/06/17 00:29:37;;;;;;;31.23;26.02;;;;;;;;;;4989956;28;20629;-70
2021/06/17 00:32:03;;;;;;;32.97;25.27;;;;;;;;;;4988836;28;20019;-70
2021/06/17 00:34:29;;;;;;;32.33;25.13;;;;;;;;;;4984511;28;20041;-70
2021/06/17 00:36:55;;;;;;;33.20;26.02;;;;;;;;;;4989144;28;20033;-70
2021/06/17 00:39:21;;;;;;;32.20;26.35;;;;;;;;;;4985549;28;20087;-70
2021/06/17 00:41:47;;;;;;;30.58;24.70;;;;;;;;;;4987430;28;20061;-70
2021/06/17 00:44:13;;;;;;;30.20;26.38;;;;;;;;;;4989079;28;20037;-70
2021/06/17 00:46:39;;;;;;;32.63;25.77;;;;;;;;;;4988301;28;20113;-70
2021/06/17 00:49:06;;;;;;;26.02;21.52;;;;;;;;;;4989049;28;20030;-70
2021/06/17 00:51:32;;;;;;;30.10;23.55;;;;;;;;;;4986955;28;20029;-70
2021/06/17 00:53:58;;;;;;;28.17;22.10;;;;;;;;;;4987534;28;20087;-70
2021/06/17 00:56:24;;;;;;;29.73;26.23;;;;;;;;;;4988081;28;20048;-70
2021/06/17 00:58:51;;;;;;;30.45;27.20;;;;;;;;;;4986233;28;20033;-70
2021/06/17 01:01:17;;;;;;;33.30;27.45;;;;;;;;;;4986394;28;20053;-70
2021/06/17 01:03:43;;;;;;;30.20;26.05;;;;;;;;;;4971945;28;20143;-70
2021/06/17 01:06:10;;;;;;;34.42;27.38;;;;;;;;;;4977515;28;20038;-70
2021/06/17 01:08:36;;;;;;;37.08;29.05;;;;;;;;;;4984746;28;20026;-70
2021/06/17 01:11:11;;;;;;;32.70;27.30;;;;;;;;;;4993175;28;20023;-70
2021/06/17 01:13:40;;;;;;;40.40;28.60;;;;;;;;;;4991367;28;20042;-70
2021/06/17 01:16:06;;;;;;;28.70;25.58;;;;;;;;;;4992347;28;20401;-70
2021/06/17 01:18:33;;;;;;;28.70;24.65;;;;;;;;;;4989257;28;20030;-71
2021/06/17 01:21:01;;;;;;;34.83;30.38;;;;;;;;;;4993844;28;20098;-70
2021/06/17 01:23:50;;;;;;;34.33;29.20;;;;;;;;;;4992969;28;20512;-70
2021/06/17 01:26:42;;;;;;;33.53;26.35;;;;;;;;;;4988815;28;20030;-71
2021/06/17 01:29:13;;;;;;;32.00;25.13;;;;;;;;;;4989975;28;20117;-70
2021/06/17 01:31:39;;;;;;;28.17;22.73;;;;;;;;;;4993969;28;20023;-70
2021/06/17 01:34:05;;;;;;;29.30;26.17;;;;;;;;;;4991892;28;20370;-70
2021/06/17 01:36:36;;;;;;;30.45;26.10;;;;;;;;;;4991902;28;20080;-70
2021/06/17 01:39:04;;;;;;;31.13;24.77;;;;;;;;;;4992037;28;20030;-70
2021/06/17 01:41:33;;;;;;;30.38;23.77;;;;;;;;;;4993721;28;20096;-71
2021/06/17 01:44:00;;;;;;;31.90;27.23;;;;;;;;;;4991691;28;20021;-71
2021/06/17 01:46:26;;;;;;;28.30;24.30;;;;;;;;;;4997042;28;20029;-70
2021/06/17 01:48:53;;;;;;;29.70;24.58;;;;;;;;;;4989062;28;20136;-70
2021/06/17 01:51:20;;;;;;;28.58;25.48;;;;;;;;;;4992350;28;20054;-70
2021/06/17 01:53:48;;;;;;;29.15;26.00;;;;;;;;;;4990185;28;20023;-71
2021/06/17 01:56:14;;;;;;;35.78;27.63;;;;;;;;;;4996799;28;20054;-71
2021/06/17 01:58:41;;;;;;;28.70;24.40;;;;;;;;;;4998853;28;20698;-71
2021/06/17 02:01:07;;;;;;;28.83;24.10;;;;;;;;;;4995649;28;20027;-70
2021/06/17 02:03:34;;;;;;;32.75;24.77;;;;;;;;;;4991246;28;20509;-70
2021/06/17 02:06:00;;;;;;;29.80;22.45;;;;;;;;;;4991951;28;20522;-70
2021/06/17 02:08:26;;;;;;;27.77;22.10;;;;;;;;;;5004825;28;20041;-70
2021/06/17 02:10:53;;;;;;;31.92;24.40;;;;;;;;;;4997932;28;20019;-70
2021/06/17 02:13:19;;;;;;;26.02;21.63;;;;;;;;;;5004918;28;20099;-71
2021/06/17 02:15:46;;;;;;;27.83;19.85;;;;;;;;;;4993838;28;20039;-70
2021/06/17 02:18:14;;;;;;;28.58;23.98;;;;;;;;;;4985876;28;20070;-70
2021/06/17 02:20:41;;;;;;;25.75;21.52;;;;;;;;;;4997637;28;20038;-71
2021/06/17 02:23:13;;;;;;;27.20;21.70;;;;;;;;;;4993467;28;20036;-70
2021/06/17 02:25:40;;;;;;;29.63;25.30;;;;;;;;;;5006070;28;20030;-70
2021/06/17 02:28:09;;;;;;;26.60;22.58;;;;;;;;;;4993974;28;20018;-70
2021/06/17 02:30:36;;;;;;;25.92;22.17;;;;;;;;;;4999327;28;20451;-70
2021/06/17 02:33:04;;;;;;;27.30;22.10;;;;;;;;;;4993496;28;20025;-70
2021/06/17 02:35:31;;;;;;;23.45;20.77;;;;;;;;;;4997388;28;20022;-70
2021/06/17 02:37:59;;;;;;;28.67;22.05;;;;;;;;;;4991606;28;20121;-70
2021/06/17 02:40:26;;;;;;;29.38;23.67;;;;;;;;;;4989125;28;20045;-70
2021/06/17 02:42:53;;;;;;;26.88;23.83;;;;;;;;;;4991700;28;20034;-70
2021/06/17 02:45:19;;;;;;;27.48;20.95;;;;;;;;;;5000267;28;20036;-70
2021/06/17 02:47:45;;;;;;;28.95;22.30;;;;;;;;;;5009345;28;20582;-70
2021/06/17 02:50:12;;;;;;;26.33;22.85;;;;;;;;;;4993857;28;20026;-70
2021/06/17 02:52:41;;;;;;;30.10;22.67;;;;;;;;;;5007732;28;20040;-70
2021/06/17 02:55:08;;;;;;;31.15;24.15;;;;;;;;;;4998816;28;20105;-70
2021/06/17 02:57:54;;;;;;;25.73;22.70;;;;;;;;;;4989336;28;20053;-70
2021/06/17 03:00:21;;;;;;;29.30;22.00;;;;;;;;;;4982815;28;20129;-70
2021/06/17 03:03:03;;;;;;;27.27;21.90;;;;;;;;;;4993207;28;20044;-70
2021/06/17 03:05:39;;;;;;;28.95;23.92;;;;;;;;;;4994623;28;20472;-70
2021/06/17 03:08:12;;;;;;;29.17;23.75;;;;;;;;;;4975592;28;20023;-70
2021/06/17 03:10:38;;;;;;;28.65;24.50;;;;;;;;;;5001485;28;20397;-71
2021/06/17 03:13:05;;;;;;;30.30;24.10;;;;;;;;;;5004008;28;20022;-70
2021/06/17 03:15:34;;;;;;;26.40;22.35;;;;;;;;;;4997108;28;20114;-70
2021/06/17 03:18:02;;;;;;;26.65;23.70;;;;;;;;;;4990436;28;20041;-70
2021/06/17 03:20:30;;;;;;;28.23;23.13;;;;;;;;;;4992360;28;20078;-71
2021/06/17 03:22:56;;;;;;;26.83;23.90;;;;;;;;;;4999671;28;20018;-70
2021/06/17 03:25:24;;;;;;;27.10;23.40;;;;;;;;;;4995136;28;20038;-70
2021/06/17 03:27:51;;;;;;;29.30;23.17;;;;;;;;;;5009305;28;20048;-70
2021/06/17 03:30:23;;;;;;;25.30;21.15;;;;;;;;;;4997444;28;20058;-71
2021/06/17 03:32:50;;;;;;;27.58;23.48;;;;;;;;;;5002798;28;20094;-70
2021/06/17 03:35:17;;;;;;;26.65;22.13;;;;;;;;;;4992464;28;20042;-71
2021/06/17 03:37:43;;;;;;;24.30;21.13;;;;;;;;;;4989558;28;20022;-70
2021/06/17 03:40:10;;;;;;;25.05;21.83;;;;;;;;;;4988627;28;20113;-71
2021/06/17 03:42:37;;;;;;;30.45;21.75;;;;;;;;;;4993110;28;20515;-71
2021/06/17 03:45:03;;;;;;;28.98;21.75;;;;;;;;;;4997424;28;20581;-70
2021/06/17 03:47:31;;;;;;;30.42;21.50;;;;;;;;;;4997120;28;20030;-70
2021/06/17 03:49:57;;;;;;;28.92;23.65;;;;;;;;;;4995456;28;20027;-70
2021/06/17 03:52:23;;;;;;;24.05;20.85;;;;;;;;;;4998443;28;20079;-70
2021/06/17 03:54:50;;;;;;;25.15;21.63;;;;;;;;;;4993850;28;20022;-71
2021/06/17 03:57:20;;;;;;;26.15;21.38;;;;;;;;;;5003313;28;20034;-70
2021/06/17 03:59:47;;;;;;;24.85;20.98;;;;;;;;;;4985823;28;20029;-70
2021/06/17 04:02:14;;;;;;;26.77;21.80;;;;;;;;;;5000500;28;20484;-71
2021/06/17 04:04:41;;;;;;;26.35;20.23;;;;;;;;;;4983127;28;20073;-70
2021/06/17 04:07:19;;;;;;;25.77;20.88;;;;;;;;;;4990309;28;20030;-70
2021/06/17 04:09:45;;;;;;;24.27;20.30;;;;;;;;;;4992458;28;20476;-71
2021/06/17 04:12:13;;;;;;;29.80;20.90;;;;;;;;;;4989249;28;20018;-70
2021/06/17 04:14:41;;;;;;;28.02;21.70;;;;;;;;;;4979813;28;20026;-70
2021/06/17 04:17:08;;;;;;;29.50;21.63;;;;;;;;;;4978567;28;20405;-70
2021/06/17 04:19:35;;;;;;;24.85;20.33;;;;;;;;;;4997077;28;20030;-70
2021/06/17 04:22:03;;;;;;;24.10;19.77;;;;;;;;;;4987795;28;20022;-71
2021/06/17 04:24:30;;;;;;;26.15;19.90;;;;;;;;;;4986987;28;20372;-71
2021/06/17 04:26:57;;;;;;;30.38;22.02;;;;;;;;;;4980825;28;20103;-71
2021/06/17 04:29:24;;;;;;;25.60;20.63;;;;;;;;;;4987532;28;20022;-71
2021/06/17 04:31:51;;;;;;;26.60;21.17;;;;;;;;;;4982749;28;20038;-70
2021/06/17 04:34:18;;;;;;;24.77;20.25;;;;;;;;;;4978124;28;20034;-71
2021/06/17 04:36:44;;;;;;;23.58;19.95;;;;;;;;;;4985451;28;20034;-71
2021/06/17 04:39:11;;;;;;;23.15;18.33;;;;;;;;;;4985169;28;20479;-70
2021/06/17 04:41:37;;;;;;;21.30;17.60;;;;;;;;;;4988629;28;20118;-70
2021/06/17 04:44:04;;;;;;;21.70;17.27;;;;;;;;;;4993232;28;20015;-70
2021/06/17 04:46:33;;;;;;;22.83;18.30;;;;;;;;;;4994136;28;20041;-71
2021/06/17 04:49:00;;;;;;;22.85;19.67;;;;;;;;;;5000906;28;20139;-71
2021/06/17 04:51:26;;;;;;;25.38;17.88;;;;;;;;;;4995057;28;20083;-71
2021/06/17 04:53:54;;;;;;;23.50;18.58;;;;;;;;;;5005191;28;20025;-70
2021/06/17 04:56:20;;;;;;;21.20;15.90;;;;;;;;;;4993662;28;20424;-71
2021/06/17 04:58:50;;;;;;;24.30;19.05;;;;;;;;;;4991611;28;20127;-71
2021/06/17 05:01:18;;;;;;;22.38;17.40;;;;;;;;;;4987145;28;21194;-70
2021/06/17 05:03:44;;;;;;;18.25;16.27;;;;;;;;;;4993611;28;20046;-70
2021/06/17 05:06:11;;;;;;;23.08;17.40;;;;;;;;;;4991976;28;20037;-70
2021/06/17 05:11:23;;;;;;;23.15;16.20;;;;;;;;;;4993151;28;20033;-70
2021/06/17 05:13:49;;;;;;;21.10;16.55;;;;;;;;;;4996888;28;20024;-70
2021/06/17 05:16:15;;;;;;;19.50;16.17;;;;;;;;;;4996780;28;20084;-71
2021/06/17 05:18:41;;;;;;;17.90;14.05;;;;;;;;;;4988119;28;20030;-71
2021/06/17 05:21:08;;;;;;;21.05;13.82;;;;;;;;;;4989866;28;20490;-71
2021/06/17 05:23:37;;;;;;;21.98;14.00;;;;;;;;;;4990852;28;20139;-70
2021/06/17 05:26:04;;;;;;;17.90;13.27;;;;;;;;;;4990187;28;20030;-71
2021/06/17 05:28:31;;;;;;;17.50;12.43;;;;;;;;;;4988980;28;20030;-71
2021/06/17 05:30:58;;;;;;;21.20;13.38;;;;;;;;;;4991351;28;20514;-70
2021/06/17 05:33:25;;;;;;;18.48;10.57;;;;;;;;;;4989882;28;20026;-71
2021/06/17 05:35:51;;;;;;;14.50;9.23;;;;;;;;;;4991112;28;20469;-70
2021/06/17 05:38:21;;;;;;;16.77;8.50;;;;;;;;;;4989805;28;20454;-67
2021/06/17 05:40:47;;;;;;;13.48;8.45;;;;;;;;;;4983533;28;20477;-71
2021/06/17 05:43:13;;;;;;;14.45;8.07;;;;;;;;;;4990800;28;20038;-73
2021/06/17 05:45:39;;;;;;;16.83;8.63;;;;;;;;;;4991085;28;20038;-73
2021/06/17 05:48:06;;;;;;;13.07;9.70;;;;;;;;;;5031167;28;20499;-72
2021/06/17 05:50:32;;;;;;;16.02;10.50;;;;;;;;;;5003021;28;20033;-70
2021/06/17 05:52:58;;;;;;;15.55;11.63;;;;;;;;;;4990668;28;20398;-70
2021/06/17 05:55:24;;;;;;;17.20;11.65;;;;;;;;;;4988212;28;20030;-70
2021/06/17 05:57:50;;;;;;;16.35;10.93;;;;;;;;;;4990555;28;20030;-70
2021/06/17 06:00:16;;;;;;;13.57;7.80;;;;;;;;;;4985748;28;20105;-71
2021/06/17 06:02:42;;;;;;;18.52;6.30;;;;;;;;;;4993710;28;20038;-69
2021/06/17 06:05:09;;;;;;;12.07;6.55;;;;;;;;;;4989452;28;20030;-68
2021/06/17 06:07:35;;;;;;;16.75;7.07;;;;;;;;;;4990511;28;20054;-67
2021/06/17 06:10:03;;;;;;;23.67;8.10;;;;;;;;;;4985837;28;20023;-71
2021/06/17 06:12:29;;;;;;;29.58;9.80;;;;;;;;;;4982355;28;20303;-70
2021/06/17 06:14:55;;;;;;;30.95;9.50;;;;;;;;;;4985621;28;20025;-68
2021/06/17 06:17:21;;;;;;;24.42;9.23;;;;;;;;;;4990240;28;20029;-66
2021/06/17 06:19:47;;;;;;;35.88;10.45;;;;;;;;;;4987430;28;20026;-70
2021/06/17 06:22:13;;;;;;;36.95;11.02;;;;;;;;;;4988809;28;20026;-71
2021/06/17 06:24:40;;;;;;;39.58;9.75;;;;;;;;;;4989884;28;20026;-70
2021/06/17 06:27:07;;;;;;;36.95;11.40;;;;;;;;;;4988885;28;20033;-67
2021/06/17 06:29:33;;;;;;;43.70;11.25;;;;;;;;;;4985942;28;20031;-69
2021/06/17 06:31:59;;;;;;;34.63;10.18;;;;;;;;;;4990542;28;20015;-69
2021/06/17 06:34:25;;;;;;;36.45;10.77;;;;;;;;;;4988753;28;20030;-70
2021/06/17 06:36:52;;;;;;;34.85;9.63;;;;;;;;;;4990269;28;20070;-69
2021/06/17 06:39:18;;;;;;;34.80;10.45;;;;;;;;;;4985548;28;20038;-70
2021/06/17 06:41:45;;;;;;;36.78;11.45;;;;;;;;;;4989596;28;20034;-69
2021/06/17 06:44:11;;;;;;;32.03;9.73;;;;;;;;;;4986258;28;20053;-70
2021/06/17 06:46:41;;;;;;;30.77;10.05;;;;;;;;;;4988151;28;20110;-70
2021/06/17 06:49:07;;;;;;;41.97;11.15;;;;;;;;;;4986780;28;20023;-69
2021/06/17 06:51:40;;;;;;;34.47;9.52;;;;;;;;;;4989782;28;20100;-69
2021/06/17 06:54:07;;;;;;;44.50;9.75;;;;;;;;;;4991496;28;20054;-70
2021/06/17 06:56:33;;;;;;;36.67;10.05;;;;;;;;;;4989903;28;20037;-69
2021/06/17 06:58:59;;;;;;;24.92;9.20;;;;;;;;;;4987359;28;20026;-69
2021/06/17 07:01:25;;;;;;;34.20;10.23;;;;;;;;;;4989576;28;20023;-69
2021/06/17 07:03:51;;;;;;;31.13;9.82;;;;;;;;;;4987965;28;20047;-70
2021/06/17 07:06:17;;;;;;;32.65;9.15;;;;;;;;;;4989319;28;20057;-70
2021/06/17 07:08:43;;;;;;;24.38;8.88;;;;;;;;;;4984386;28;20537;-70
2021/06/17 07:11:09;;;;;;;29.85;9.13;;;;;;;;;;4989058;28;20018;-71
2021/06/17 07:13:35;;;;;;;31.65;9.00;;;;;;;;;;4989541;28;20030;-71
2021/06/17 07:16:03;;;;;;;33.15;9.75;;;;;;;;;;4991611;28;20049;-70
2021/06/17 07:18:29;;;;;;;30.75;9.55;;;;;;;;;;5022262;28;20061;-71
2021/06/17 07:20:55;;;;;;;27.08;9.48;;;;;;;;;;4989282;28;20023;-71
2021/06/17 07:23:21;;;;;;;30.85;9.50;;;;;;;;;;4989403;28;20109;-72
2021/06/17 07:25:47;;;;;;;29.10;9.40;;;;;;;;;;4988004;28;20116;-71
2021/06/17 07:28:13;;;;;;;27.05;9.02;;;;;;;;;;4989082;28;20027;-71
2021/06/17 07:30:39;;;;;;;34.92;10.73;;;;;;;;;;4987124;28;20057;-71
2021/06/17 07:33:07;;;;;;;30.48;11.25;;;;;;;;;;4987707;28;20026;-71
2021/06/17 07:35:33;;;;;;;35.50;10.63;;;;;;;;;;4989669;28;20046;-71
2021/06/17 07:37:59;;;;;;;34.30;10.73;;;;;;;;;;4989121;28;20026;-71
2021/06/17 07:40:25;;;;;;;32.50;10.00;;;;;;;;;;4985999;28;20026;-71
2021/06/17 07:42:51;;;;;;;36.78;11.18;;;;;;;;;;4987573;28;20033;-71
2021/06/17 07:45:17;;;;;;;36.47;10.48;;;;;;;;;;4985572;28;20112;-71
2021/06/17 07:47:43;;;;;;;29.33;11.40;;;;;;;;;;4986062;28;20033;-71
2021/06/17 07:50:10;;;;;;;24.40;9.40;;;;;;;;;;4985796;28;20405;-71
2021/06/17 07:52:36;;;;;;;29.98;9.85;;;;;;;;;;4977345;28;20058;-71
2021/06/17 07:55:03;;;;;;;34.22;11.30;;;;;;;;;;4996650;28;20083;-71
2021/06/17 07:57:29;;;;;;;32.20;10.57;;;;;;;;;;4988375;28;20046;-71
2021/06/17 07:59:55;;;;;;;31.38;10.15;;;;;;;;;;4988052;28;20116;-71
2021/06/17 08:02:21;;;;;;;25.60;11.35;;;;;;;;;;4987425;28;20030;-71
2021/06/17 08:04:47;;;;;;;30.85;11.38;;;;;;;;;;4988756;28;20057;-71
2021/06/17 08:07:13;;;;;;;33.15;10.75;;;;;;;;;;4988943;28;20034;-71
2021/06/17 08:09:40;;;;;;;34.60;10.00;;;;;;;;;;4985540;28;20037;-71
2021/06/17 08:12:06;;;;;;;25.38;9.80;;;;;;;;;;4987892;28;20652;-72
2021/06/17 08:14:32;;;;;;;22.00;9.05;;;;;;;;;;4988963;28;20014;-70
2021/06/17 08:16:58;;;;;;;23.63;8.23;;;;;;;;;;4999607;28;20018;-70
2021/06/17 08:19:29;;;;;;;20.17;8.13;;;;;;;;;;4985556;28;20019;-70
2021/06/17 08:21:57;;;;;;;22.65;7.93;;;;;;;;;;4988338;28;20018;-70
2021/06/17 08:24:23;;;;;;;20.83;7.85;;;;;;;;;;4987453;28;20028;-70
2021/06/17 08:26:49;;;;;;;25.20;7.75;;;;;;;;;;4988198;28;20023;-70
2021/06/17 08:29:15;;;;;;;28.73;9.57;;;;;;;;;;4985223;28;20022;-70
2021/06/17 08:31:43;;;;;;;23.83;9.45;;;;;;;;;;4988287;28;20030;-70
2021/06/17 08:34:09;;;;;;;29.67;9.48;;;;;;;;;;4988211;28;20050;-70
2021/06/17 08:36:35;;;;;;;22.85;7.65;;;;;;;;;;4988047;28;20042;-71
2021/06/17 08:39:01;;;;;;;22.15;6.55;;;;;;;;;;4985357;28;20026;-70
2021/06/17 08:41:27;;;;;;;21.85;6.90;;;;;;;;;;4987979;28;20062;-70
2021/06/17 08:43:54;;;;;;;17.77;6.78;;;;;;;;;;4987604;28;20034;-70
2021/06/17 08:46:20;;;;;;;24.85;7.25;;;;;;;;;;4978418;28;20038;-70
2021/06/17 08:48:47;;;;;;;16.45;6.60;;;;;;;;;;4979596;28;20030;-70
2021/06/17 08:51:14;;;;;;;16.23;7.28;;;;;;;;;;4987752;28;20042;-71
2021/06/17 09:34:26;;;;;;;15.18;6.75;;;;;;;;;;4983261;28;20049;-68
2021/06/17 09:36:53;;;;;;;14.98;7.43;;;;;;;;;;4991117;28;20417;-69
2021/06/17 09:39:21;;;;;;;15.85;8.75;;;;;;;;;;4988108;28;20042;-70
2021/06/17 09:41:51;;;;;;;16.25;8.40;;;;;;;;;;4977209;28;20528;-70
2021/06/17 09:44:35;;;;;;;17.80;8.30;;;;;;;;;;4982529;28;20709;-70
2021/06/17 09:47:11;;;;;;;13.95;7.00;;;;;;;;;;5005578;28;20034;-69
2021/06/17 09:49:38;;;;;;;15.45;7.45;;;;;;;;;;4986663;28;20026;-69
2021/06/17 09:52:05;;;;;;;14.50;6.38;;;;;;;;;;4991000;28;20052;-69
2021/06/17 09:54:35;;;;;;;12.07;6.43;;;;;;;;;;4988344;28;20030;-69
2021/06/17 09:57:03;;;;;;;13.15;6.07;;;;;;;;;;4990024;28;20067;-68
2021/06/17 09:59:51;;;;;;;14.70;7.57;;;;;;;;;;4986760;28;20034;-70
2021/06/17 10:02:32;;;;;;;10.85;6.32;;;;;;;;;;4986030;28;20022;-72
2021/06/17 10:05:13;;;;;;;15.40;6.60;;;;;;;;;;4987438;28;20125;-71
2021/06/17 10:07:39;;;;;;;13.90;6.68;;;;;;;;;;4994983;28;20034;-72
2021/06/17 10:10:05;;;;;;;15.70;7.13;;;;;;;;;;4986202;28;20541;-72
2021/06/17 10:12:32;;;;;;;14.32;7.40;;;;;;;;;;4989527;28;20105;-70
2021/06/17 10:14:59;;;;;;;14.10;7.72;;;;;;;;;;4989381;28;20026;-73
2021/06/17 10:17:26;;;;;;;16.75;8.65;;;;;;;;;;4999447;28;20125;-71
2021/06/17 10:19:53;;;;;;;16.02;8.73;;;;;;;;;;4983245;28;20022;-71
2021/06/17 10:22:24;;;;;;;16.83;10.23;;;;;;;;;;4989594;28;20046;-68
2021/06/17 10:24:50;;;;;;;20.02;12.40;;;;;;;;;;4977715;28;20034;-70
2021/06/17 10:27:17;;;;;;;18.13;11.60;;;;;;;;;;4984762;28;20505;-70
2021/06/17 10:29:51;;;;;;;19.13;12.90;;;;;;;;;;4991475;28;20083;-70
2021/06/17 10:32:32;;;;;;;18.75;10.93;;;;;;;;;;4988959;28;20027;-70
2021/06/17 10:34:58;;;;;;;20.17;13.95;;;;;;;;;;4989664;28;20050;-69
2021/06/17 10:37:29;;;;;;;22.52;13.32;;;;;;;;;;4988436;28;20027;-70
2021/06/17 10:39:57;;;;;;;;;;;;;;;;;;4987072;28;20119;-70
2021/06/17 10:42:23;;;;;;;23.73;13.85;;;;;;;;;;4971361;28;20113;-71
2021/06/17 10:44:52;;;;;;;26.67;15.27;;;;;;;;;;4991502;28;20370;-71
2021/06/17 10:47:37;;;;;;;26.33;16.67;;;;;;;;;;4990178;28;20109;-69
2021/06/17 10:50:04;;;;;;;28.27;15.32;;;;;;;;;;4987256;28;20029;-68
2021/06/17 10:52:31;;;;;;;24.02;13.50;;;;;;;;;;4990048;28;20041;-71
2021/06/17 10:55:01;;;;;;;27.38;17.77;;;;;;;;;;4988994;28;20113;-67
2021/06/17 10:57:46;;;;;;;31.27;16.45;;;;;;;;;;4988253;28;20054;-68
2021/06/17 11:00:25;;;;;;;32.60;21.05;;;;;;;;;;4984874;28;20037;-71
2021/06/17 11:02:55;;;;;;;30.42;17.02;;;;;;;;;;4989568;28;20033;-71
2021/06/17 11:08:15;;;;;;;37.05;19.48;;;;;;;;;;4988878;28;20081;-70
2021/06/17 11:10:45;;;;;;;25.33;16.83;;;;;;;;;;4987395;28;20527;-70
2021/06/17 11:13:26;;;;;;;37.00;19.63;;;;;;;;;;4989125;28;20389;-70
2021/06/17 11:15:52;;;;;;;36.92;20.00;;;;;;;;;;4989396;28;20034;-69
2021/06/17 11:18:37;;;;;;;35.15;22.08;;;;;;;;;;5010608;28;20062;-70
2021/06/17 11:21:03;;;;;;;45.50;26.00;;;;;;;;;;4978615;28;20496;-69
2021/06/17 11:23:30;;;;;;;37.28;24.10;;;;;;;;;;4989238;28;20433;-71
2021/06/17 11:26:00;;;;;;;37.08;21.25;;;;;;;;;;4989663;28;20041;-71
2021/06/17 11:28:46;;;;;;;32.85;18.40;;;;;;;;;;4982961;28;20023;-68
2021/06/17 11:31:12;;;;;;;25.00;16.70;;;;;;;;;;4976165;28;20057;-69
2021/06/17 11:33:44;;;;;;;28.05;17.13;;;;;;;;;;4979694;28;20133;-71
2021/06/17 11:36:12;;;;;;;30.55;15.40;;;;;;;;;;4988163;28;20026;-72
2021/06/17 11:38:39;;;;;;;24.90;13.50;;;;;;;;;;4986411;28;20108;-70
2021/06/17 11:41:18;;;;;;;21.00;12.63;;;;;;;;;;4988736;28;20041;-70
2021/06/17 11:43:51;;;;;;;21.77;13.68;;;;;;;;;;4988985;28;20053;-70
2021/06/17 11:46:18;;;;;;;22.85;11.57;;;;;;;;;;4988759;28;20405;-69
2021/06/17 11:48:55;;;;;;;18.70;10.25;;;;;;;;;;4972332;28;20019;-73
2021/06/17 11:51:21;;;;;;;18.42;12.77;;;;;;;;;;4989005;28;20018;-73
2021/06/17 11:53:49;;;;;;;19.23;11.55;;;;;;;;;;4988526;28;20038;-70
2021/06/17 11:56:23;;;;;;;23.92;10.93;;;;;;;;;;4986089;28;20034;-70
2021/06/17 11:58:49;;;;;;;22.33;11.77;;;;;;;;;;5028502;28;20092;-70
2021/06/17 12:01:15;;;;;;;16.45;10.13;;;;;;;;;;4991220;28;20034;-71
2021/06/17 12:03:51;;;;;;;18.75;9.32;;;;;;;;;;4996476;28;20031;-70
2021/06/17 12:06:17;;;;;;;14.25;8.88;;;;;;;;;;4992101;28;20035;-70
2021/06/17 12:08:43;;;;;;;14.88;8.85;;;;;;;;;;4977501;28;20034;-69
2021/06/17 12:11:18;;;;;;;18.92;10.70;;;;;;;;;;4986107;28;20155;-69
2021/06/17 12:13:51;;;;;;;15.98;9.90;;;;;;;;;;4985223;28;20507;-70
2021/06/17 12:16:18;;;;;;;19.27;9.55;;;;;;;;;;4987334;28;20034;-68
2021/06/17 12:18:44;;;;;;;15.38;8.75;;;;;;;;;;4990193;28;20125;-71
2021/06/17 12:21:10;;;;;;;16.60;9.35;;;;;;;;;;4996968;28;20027;-73
2021/06/17 12:23:36;;;;;;;19.30;8.35;;;;;;;;;;4986847;28;20042;-70
2021/06/17 12:26:05;;;;;;;18.58;9.05;;;;;;;;;;4997400;28;20500;-70
2021/06/17 12:28:32;;;;;;;20.25;10.40;;;;;;;;;;4981858;28;20026;-69
2021/06/17 12:30:59;;;;;;;15.90;10.38;;;;;;;;;;4987087;28;20037;-71
2021/06/17 12:33:26;;;;;;;19.83;11.98;;;;;;;;;;4988533;28;20057;-71
2021/06/17 12:36:03;;;;;;;21.27;11.25;;;;;;;;;;4984650;28;20057;-70
2021/06/17 12:38:30;;;;;;;19.65;11.35;;;;;;;;;;4983061;28;20022;-70
2021/06/17 12:41:11;;;;;;;23.08;10.88;;;;;;;;;;4986716;28;20050;-69
2021/06/17 12:43:41;;;;;;;23.00;11.13;;;;;;;;;;4984014;28;20042;-69
2021/06/17 12:46:08;;;;;;;22.23;11.68;;;;;;;;;;4980789;28;20030;-70
2021/06/17 12:53:58;;;;;;;18.58;9.73;;;;;;;;;;4982420;28;20065;-70
2021/06/17 12:56:24;;;;;;;21.10;8.60;;;;;;;;;;4985553;28;20033;-69
2021/06/17 12:58:52;;;;;;;18.85;8.55;;;;;;;;;;4988903;28;20030;-69
2021/06/17 13:01:21;;;;;;;16.13;8.18;;;;;;;;;;4987096;28;20088;-69
2021/06/17 13:03:47;;;;;;;18.17;8.15;;;;;;;;;;4988586;28;20034;-69
2021/06/17 13:06:15;;;;;;;19.60;8.45;;;;;;;;;;4999104;28;20467;-69
2021/06/17 13:08:48;;;;;;;18.05;8.30;;;;;;;;;;4987865;28;20026;-69
2021/06/17 13:11:26;;;;;;;17.83;9.35;;;;;;;;;;4990070;28;20069;-69
2021/06/17 13:14:05;;;;;;;20.42;9.65;;;;;;;;;;4992230;28;20031;-69
2021/06/17 13:16:34;;;;;;;20.40;8.68;;;;;;;;;;5051999;28;20024;-69
2021/06/17 13:19:00;;;;;;;19.95;8.40;;;;;;;;;;5058535;28;20027;-69
2021/06/17 13:21:27;;;;;;;23.35;9.57;;;;;;;;;;5067764;28;20103;-69
2021/06/17 13:23:53;;;;;;;19.45;8.35;;;;;;;;;;4989378;28;20026;-69
2021/06/17 13:26:20;;;;;;;18.58;8.50;;;;;;;;;;5011947;28;20026;-69
2021/06/17 13:28:55;;;;;;;20.10;8.57;;;;;;;;;;4998119;28;20536;-69
2021/06/17 13:31:26;;;;;;;17.40;7.80;;;;;;;;;;4989115;28;20057;-68
2021/06/17 13:33:54;;;;;;;18.35;7.60;;;;;;;;;;4990011;28;20557;-69
2021/06/17 13:36:20;;;;;;;14.15;7.28;;;;;;;;;;4996976;28;20109;-69
2021/06/17 13:38:46;;;;;;;15.43;7.78;;;;;;;;;;4985070;28;20351;-69
2021/06/17 13:41:13;;;;;;;16.73;8.27;;;;;;;;;;4988000;28;20042;-69
2021/06/17 13:43:39;;;;;;;15.20;7.57;;;;;;;;;;5002258;28;20080;-68
2021/06/17 13:46:06;;;;;;;20.55;8.18;;;;;;;;;;5005254;28;20095;-69
2021/06/17 13:48:35;;;;;;;14.05;7.20;;;;;;;;;;4996570;28;20409;-68
2021/06/17 13:51:02;;;;;;;15.60;7.13;;;;;;;;;;5004750;28;20018;-69
2021/06/17 13:53:28;;;;;;;10.82;6.88;;;;;;;;;;5008187;28;20101;-69
2021/06/17 13:55:54;;;;;;;16.05;7.40;;;;;;;;;;4992713;28;20101;-69
2021/06/17 13:58:20;;;;;;;17.60;8.15;;;;;;;;;;4989320;28;20034;-68
2021/06/17 14:00:46;;;;;;;13.50;6.40;;;;;;;;;;4990486;28;20548;-68
2021/06/17 14:03:12;;;;;;;12.23;6.85;;;;;;;;;;4990680;28;20503;-69
2021/06/17 14:05:40;;;;;;;14.80;6.47;;;;;;;;;;4988745;28;20041;-69
2021/06/17 14:08:06;;;;;;;15.68;6.85;;;;;;;;;;4994274;28;20037;-68
2021/06/17 14:10:33;;;;;;;15.70;7.43;;;;;;;;;;4997841;28;20029;-68
2021/06/17 14:13:02;;;;;;;11.93;6.55;;;;;;;;;;4990141;28;20054;-69
2021/06/17 14:15:29;;;;;;;15.82;7.20;;;;;;;;;;4990726;28;20022;-69
2021/06/17 14:17:57;;;;;;;14.60;6.65;;;;;;;;;;5053124;28;20498;-69
2021/06/17 14:20:24;;;;;;;16.05;7.50;;;;;;;;;;4996868;28;20031;-68
2021/06/17 14:22:50;;;;;;;14.25;6.65;;;;;;;;;;4979790;28;20089;-70
2021/06/17 14:25:16;;;;;;;11.43;6.20;;;;;;;;;;4990669;28;20056;-68
2021/06/17 14:27:44;;;;;;;16.08;6.57;;;;;;;;;;4990935;28;20023;-67
2021/06/17 14:30:10;;;;;;;16.13;7.07;;;;;;;;;;4989007;28;20031;-68
2021/06/17 14:32:36;;;;;;;16.98;7.22;;;;;;;;;;4990812;28;20117;-68
2021/06/17 14:35:03;;;;;;;12.23;6.15;;;;;;;;;;4990654;28;20042;-68
2021/06/17 14:37:29;;;;;;;13.07;6.03;;;;;;;;;;4987116;28;20092;-69
2021/06/17 14:39:55;;;;;;;14.40;6.55;;;;;;;;;;4987890;28;20042;-68
2021/06/17 14:42:21;;;;;;;14.18;7.00;;;;;;;;;;4989556;28;20036;-67
2021/06/17 14:44:47;;;;;;;12.25;6.38;;;;;;;;;;4989383;28;20144;-67
2021/06/17 14:47:13;;;;;;;14.50;6.47;;;;;;;;;;4989361;28;20023;-68
2021/06/17 14:49:39;;;;;;;11.63;6.72;;;;;;;;;;4990068;28;20035;-68
2021/06/17 14:52:06;;;;;;;13.77;7.60;;;;;;;;;;4991929;28;20030;-67
2021/06/17 14:54:32;;;;;;;15.35;6.95;;;;;;;;;;4989987;28;20030;-68
2021/06/17 14:56:58;;;;;;;15.98;6.82;;;;;;;;;;4990380;28;20035;-67
2021/06/17 14:59:24;;;;;;;15.88;7.70;;;;;;;;;;4988931;28;20033;-67
2021/06/17 15:01:51;;;;;;;15.23;7.28;;;;;;;;;;5011921;28;20016;-66
2021/06/17 15:04:17;;;;;;;15.25;6.85;;;;;;;;;;5003179;28;20523;-67
2021/06/17 15:06:44;;;;;;;16.42;7.30;;;;;;;;;;4995953;28;20038;-68
2021/06/17 15:09:10;;;;;;;15.18;6.78;;;;;;;;;;4991946;28;20033;-67
2021/06/17 15:11:37;;;;;;;13.77;7.55;;;;;;;;;;4989268;28;20547;-68
2021/06/17 15:14:04;;;;;;;15.15;7.43;;;;;;;;;;4991462;28;20030;-68
2021/06/17 15:16:36;;;;;;;13.15;7.70;;;;;;;;;;4993844;28;20528;-68
2021/06/17 15:19:02;;;;;;;16.48;8.05;;;;;;;;;;4984512;28;20045;-68